Latest Weather Observations for Double Island Point

IDQ60801

Issued at 7:07 pm EST Friday 30 January 2015 (issued every 30 minutes, with the page automatically refreshed every 10 minutes)

About weather observations | Map of weather stations | Latest weather observations for QLD | Other Formats
Station Details ID: 040068 Name: DOUBLE ISLAND POINT LIGHTHOUSE Lat: -25.93 Lon: 153.19 Height: 95.64 m
Data from the previous 72 hours. | See also: Recent months at Double Island Point
Date/Time
EST
Temp
°C
App
Temp
°C
Dew
Point
Rel
Hum
%
Delta-T
°C
Wind Press
QNH
hPa
Press
MSL
hPa
Rain
since 9 am
mm
Dir
 
Spd
km/h
Gust
km/h
Spd
kts
Gust
kts
30/07:00pm 23.4 23.5 19.1 77 2.8 NE 17 22 9 12 1007.9 1007.4 8.4
30/06:30pm 23.8 23.7 18.7 73 3.2 NE 17 24 9 13 1007.7 1007.2 8.4
30/06:00pm 24.2 23.6 18.8 72 3.4 NE 20 26 11 14 1007.5 1007.0 8.4
30/05:30pm 24.6 24.3 18.3 68 4.0 NE 17 24 9 13 1007.2 1006.7 8.4
30/05:00pm 24.7 23.8 19.1 71 3.6 ENE 22 28 12 15 1007.1 1006.6 8.4
30/04:30pm 24.6 23.1 18.5 69 3.9 ENE 24 32 13 17 1007.0 1006.5 8.4
30/04:00pm 25.2 24.7 19.1 69 3.9 ENE 20 28 11 15 1007.3 1006.8 8.4
30/03:30pm 25.6 24.7 19.0 67 4.2 E 22 28 12 15 1007.4 1006.9 8.4
30/03:00pm 25.2 23.8 18.9 68 4.0 E 24 28 13 15 1007.5 1007.0 8.4
30/02:30pm 25.7 24.8 19.8 70 3.8 E 24 30 13 16 1007.8 1007.3 8.4
30/02:00pm 25.4 24.7 19.5 70 3.8 E 22 26 12 14 1008.0 1007.5 8.4
30/01:30pm 25.3 25.2 19.9 72 3.5 E 20 26 11 14 1008.4 1007.9 8.4
30/01:00pm 24.8 24.2 19.8 74 3.2 ESE 22 26 12 14 1008.7 1008.2 8.4
30/12:30pm 24.5 24.1 20.2 77 2.8 ESE 22 28 12 15 1009.1 1008.6 8.4
30/12:00pm 23.8 23.4 20.1 80 2.4 SE 22 28 12 15 1009.6 1009.1 8.2
30/11:30am 22.6 20.9 19.9 85 1.7 SE 28 30 15 16 1009.7 1009.2 8.2
30/11:00am 22.0 20.5 20.3 90 1.1 SE 28 35 15 19 1009.8 1009.3 8.2
30/10:30am 21.5 21.2 19.6 89 1.2 E 20 26 11 14 1010.1 1009.6 6.4
30/10:00am 21.2 19.2 18.4 84 1.8 ESE 26 37 14 20 1010.1 1009.6 0.2
30/09:30am 22.3 22.3 20.2 88 1.4 SE 20 28 11 15 1010.1 1009.6 0.0
30/09:00am 22.1 23.2 20.4 90 1.1 SE 15 20 8 11 1010.1 1009.6 10.8
30/08:30am 21.1 20.9 19.4 90 1.1 SE 19 20 10 11 1010.1 1009.6 10.6
30/08:00am 21.5 20.5 19.6 89 1.2 SE 24 32 13 17 1009.8 1009.3 9.0
30/07:30am 21.7 22.4 19.6 88 1.3 SSE 15 20 8 11 1009.7 1009.2 8.2
30/07:00am 21.1 20.6 18.7 86 1.5 SE 19 28 10 15 1009.5 1009.0 7.0
30/06:30am 23.1 22.3 18.4 75 3.0 ESE 20 37 11 20 1008.9 1008.4 2.8
30/06:00am 23.7 23.5 17.7 69 3.8 E 15 19 8 10 1008.6 1008.1 2.8
30/05:30am 23.1 22.4 17.3 70 3.6 ESE 17 20 9 11 1008.2 1007.7 2.8
30/05:00am 23.0 21.9 17.7 72 3.3 E 20 24 11 13 1007.8 1007.3 2.8
30/04:30am 23.1 21.7 18.0 73 3.2 E 22 26 12 14 1007.8 1007.3 2.8
30/04:00am 23.1 22.2 18.2 74 3.1 E 20 24 11 13 1007.8 1007.3 2.8
30/03:30am 23.1 21.2 17.6 71 3.4 E 24 28 13 15 1007.8 1007.3 2.8
30/03:00am 23.2 21.4 17.9 72 3.3 E 24 30 13 16 1007.8 1007.3 2.8
30/02:30am 23.2 21.0 17.9 72 3.3 E 26 30 14 16 1007.9 1007.4 2.8
30/02:00am 23.2 21.4 17.9 72 3.3 ESE 24 30 13 16 1008.1 1007.6 2.8
30/01:30am 23.4 21.6 17.8 71 3.5 E 24 30 13 16 1008.4 1007.9 2.8
30/01:00am 23.3 21.0 17.5 70 3.6 ESE 26 32 14 17 1008.6 1008.1 2.8
30/12:30am 23.4 21.2 17.8 71 3.5 E 26 33 14 18 1008.8 1008.3 2.8
30/12:00am 23.5 20.9 17.7 70 3.6 ESE 28 35 15 19 1009.0 1008.5 2.8
 
Date/Time
EST
Temp
°C
App
Temp
°C
Dew
Point
Rel
Hum
%
Delta-T
°C
Wind Press
QNH
hPa
Press
MSL
hPa
Rain
since 9 am
mm
Dir
 
Spd
km/h
Gust
km/h
Spd
kts
Gust
kts
29/11:30pm 23.6 20.2 17.8 70 3.6 ESE 32 35 17 19 1009.3 1008.8 2.8
29/11:00pm 23.8 20.5 18.0 70 3.7 ESE 32 37 17 20 1009.4 1008.9 2.8
29/10:30pm 23.8 19.9 17.8 69 3.8 ESE 35 41 19 22 1009.5 1009.0 2.8
29/10:00pm 23.8 20.4 18.2 71 3.5 ESE 33 39 18 21 1009.5 1009.0 2.8
29/09:30pm 23.9 20.3 17.6 68 3.9 ESE 33 39 18 21 1009.5 1009.0 2.8
29/09:00pm 23.8 20.4 17.8 69 3.8 ESE 32 41 17 22 1009.5 1009.0 2.8
29/08:30pm 23.9 20.4 17.9 69 3.8 ESE 33 41 18 22 1009.1 1008.6 2.8
29/08:00pm 24.0 20.2 18.0 69 3.8 ESE 35 43 19 23 1008.9 1008.4 2.8
29/07:30pm 23.9 19.8 17.4 67 4.0 ESE 35 41 19 22 1008.7 1008.2 2.8
29/07:00pm 23.9 19.6 16.9 65 4.3 ESE 35 39 19 21 1008.4 1007.9 2.8
29/06:30pm 24.0 20.0 17.5 67 4.1 ESE 35 41 19 22 1008.1 1007.6 2.8
29/06:00pm 24.3 20.3 17.5 66 4.3 ESE 35 43 19 23 1007.6 1007.1 2.8
29/05:30pm 24.4 19.9 18.3 69 3.9 SE 39 43 21 23 1007.4 1006.9 2.8
29/05:00pm 24.6 20.4 18.8 70 3.7 SE 39 44 21 24 1006.9 1006.4 2.8
29/04:30pm 24.9 20.9 19.3 71 3.6 SE 39 44 21 24 1006.7 1006.2 2.8
29/04:00pm 24.6 19.6 19.2 72 3.5 SE 44 48 24 26 1006.6 1006.1 2.8
29/03:30pm 24.7 20.7 20.2 76 2.9 SSE 41 46 22 25 1006.7 1006.2 2.8
29/03:00pm 24.7 21.2 19.5 73 3.4 SSE 37 44 20 24 1006.9 1006.4 2.8
29/02:30pm 24.6 19.8 19.7 74 3.2 SSE 44 52 24 28 1006.9 1006.4 2.8
29/02:00pm 24.0 19.1 19.5 76 2.9 SSE 44 54 24 29 1006.8 1006.3 2.8
29/01:30pm 22.6 21.1 20.9 90 1.1 SE 30 43 16 23 1007.2 1006.7 2.8
29/01:00pm 21.9 19.4 20.2 90 1.1 ESE 33 48 18 26 1007.3 1006.8 2.8
29/12:38pm 21.9 19.5 20.0 89 1.2 SE 32 50 17 27 1007.5 1007.0 2.2
29/12:30pm 21.6 17.8 19.7 89 1.2 SE 39 43 21 23 1007.6 1007.1 1.8
29/12:00pm 22.5 17.7 19.7 84 1.8 SSE 44 52 24 28 1007.6 1007.1 0.0
29/11:30am 23.4 17.7 19.3 78 2.6 SSE 48 61 26 33 1007.4 1006.9 0.0
29/11:00am 23.2 18.0 18.9 77 2.7 SSE 44 57 24 31 1007.4 1006.9 0.0
29/10:30am 22.6 16.4 19.0 80 2.3 SSE 50 59 27 32 1007.6 1007.1 0.0
29/10:00am 23.2 17.9 19.4 79 2.4 SSE 46 56 25 30 1007.8 1007.3 0.0
29/09:30am 23.3 17.3 19.5 79 2.4 SSE 50 59 27 32 1007.5 1007.0 0.0
29/09:00am 22.2 17.0 19.6 85 1.7 SSE 46 57 25 31 1007.5 1007.0 5.8
29/08:30am 22.5 15.6 19.3 82 2.0 SE 54 61 29 33 1007.0 1006.5 5.8
29/08:00am 21.9 16.3 19.6 87 1.5 SE 48 57 26 31 1007.2 1006.7 5.8
29/07:30am 22.9 16.9 18.7 77 2.7 SSE 48 57 26 31 1007.0 1006.5 5.8
29/07:00am 22.8 16.4 18.6 77 2.7 SSE 50 61 27 33 1006.6 1006.1 5.8
29/06:30am 22.7 15.8 18.3 76 2.8 SSE 52 61 28 33 1006.6 1006.1 5.8
29/06:00am 22.6 15.5 18.8 79 2.4 SSE 54 65 29 35 1006.3 1005.7 5.8
29/05:30am 22.9 15.9 19.1 79 2.4 SSE 54 65 29 35 1005.7 1005.1 5.8
29/05:00am 22.9 16.7 19.1 79 2.4 SSE 50 59 27 32 1005.5 1004.9 5.8
29/04:30am 22.7 16.3 18.7 78 2.5 SSE 50 61 27 33 1005.4 1004.8 5.8
29/04:00am 22.8 16.5 18.8 78 2.5 SSE 50 61 27 33 1005.3 1004.7 5.8
29/03:30am 22.7 16.8 19.7 83 1.9 SSE 50 61 27 33 1004.9 1004.3 5.8
29/03:00am 22.4 15.4 19.0 81 2.2 SSE 54 63 29 34 1004.8 1004.2 5.8
29/02:30am 22.2 15.1 18.8 81 2.2 SSE 54 65 29 35 1004.9 1004.3 5.8
29/02:00am 22.7 16.7 18.7 78 2.5 SSE 48 57 26 31 1005.3 1004.7 5.8
29/01:30am 22.9 15.9 19.1 79 2.4 SSE 54 65 29 35 1005.4 1004.8 5.8
29/01:00am 23.1 17.0 19.3 79 2.4 SSE 50 63 27 34 1005.6 1005.0 5.8
29/12:30am 22.7 16.5 19.1 80 2.3 SSE 50 61 27 33 1005.8 1005.2 5.8
29/12:00am 22.1 16.2 19.8 87 1.5 SSE 50 63 27 34 1006.2 1005.6 5.8
 
Date/Time
EST
Temp
°C
App
Temp
°C
Dew
Point
Rel
Hum
%
Delta-T
°C
Wind Press
QNH
hPa
Press
MSL
hPa
Rain
since 9 am
mm
Dir
 
Spd
km/h
Gust
km/h
Spd
kts
Gust
kts
28/11:30pm 22.0 16.1 19.7 87 1.5 SE 50 61 27 33 1006.4 1005.8 4.0
28/11:00pm 22.4 15.9 19.2 82 2.0 SSE 52 65 28 35 1006.4 1005.8 4.0
28/10:30pm 22.2 14.6 19.0 82 2.0 SE 57 63 31 34 1006.8 1006.3 4.0
28/10:00pm 21.7 15.3 19.4 87 1.5 SSE 52 63 28 34 1006.6 1006.1 3.8
28/09:30pm 22.9 15.9 20.2 85 1.7 SE 57 67 31 36 1006.2 1005.6 3.6
28/09:00pm 23.3 16.2 20.1 82 2.1 SE 57 67 31 36 1005.9 1005.3 3.6
28/08:30pm 23.5 16.9 19.8 80 2.4 SSE 54 70 29 38 1005.7 1005.1 3.6
28/08:26pm 23.4 17.0 19.5 79 2.5 SSE 52 70 28 38 1005.5 1004.9 3.6
28/08:00pm 22.9 17.2 20.1 84 1.8 SSE 50 63 27 34 1005.5 1004.9 3.6
28/07:32pm 22.0 15.8 19.2 84 1.8 SSE 50 70 27 38 1005.5 1004.9 3.6
28/07:30pm 22.7 17.9 20.4 87 1.5 SSE 46 63 25 34 1005.7 1005.1 3.6
28/07:03pm 22.2 19.7 20.1 88 1.4 SE 33 59 18 32 1005.9 1005.3 2.8
28/07:00pm 22.5 20.5 20.8 90 1.1 ESE 32 43 17 23 1006.1 1005.5 2.8
28/06:30pm 22.5 18.3 20.6 89 1.2 ESE 43 50 23 27 1005.8 1005.2 2.4
28/06:11pm 22.8 17.6 20.5 87 1.5 SE 48 57 26 31 1005.3 1004.7 2.4
28/06:00pm 22.8 18.2 20.0 84 1.8 SSE 44 54 24 29 1005.2 1004.6 2.4
28/05:30pm 21.3 17.0 19.6 90 1.1 SE 41 48 22 26 1005.3 1004.7 2.4
28/05:00pm 21.6 18.0 20.1 91 1.0 SSE 39 52 21 28 1005.0 1004.4 2.0
28/04:30pm 21.7 18.1 20.2 91 1.0 SE 39 44 21 24 1005.0 1004.4 1.2
28/04:00pm 21.7 16.0 20.2 91 1.0 ESE 50 61 27 33 1003.6 1003.0 1.2
28/03:30pm 21.7 17.4 20.3 92 0.9 SE 43 50 23 27 1004.9 1004.3 0.8
28/03:02pm 22.2 17.0 20.5 90 1.1 SSE 48 67 26 36 1004.4 1003.8 0.4
28/03:00pm 22.3 17.5 20.4 89 1.2 SSE 46 59 25 32 1004.5 1003.9 0.2
28/02:30pm 22.0 18.8 20.3 90 1.1 SSE 37 52 20 28 1004.9 1004.3 0.2
28/02:00pm 21.7 17.0 19.8 89 1.2 SSE 44 52 24 28 1004.7 1004.1 0.0
28/01:30pm 22.6 17.5 19.8 84 1.8 SSE 46 57 25 31 1004.7 1004.1 0.0
28/01:00pm 23.3 17.5 19.9 81 2.2 SSE 50 59 27 32 1004.7 1004.1 0.0
28/12:30pm 24.2 20.7 20.5 80 2.4 SSE 39 48 21 26 1005.0 1004.4 0.0
28/12:00pm 24.9 21.4 20.4 76 3.0 SSE 39 48 21 26 1005.1 1004.5 0.0
28/11:30am 24.4 20.4 20.9 81 2.3 SSE 43 52 23 28 1005.2 1004.6 0.0
28/11:00am 24.8 21.4 20.7 78 2.7 SSE 39 46 21 25 1005.4 1004.8 0.0
28/10:30am 24.1 20.4 20.8 82 2.2 SSE 41 50 22 27 1005.6 1005.0 0.0
28/10:00am 23.4 19.8 20.9 86 1.6 SSE 41 50 22 27 1005.5 1004.9 0.0
28/09:30am 23.6 19.6 20.9 85 1.8 SSE 43 52 23 28 1005.1 1004.5 0.0
28/09:08am 23.2 20.4 20.3 84 1.9 SSE 35 56 19 30 1005.1 1004.5 0.0
28/09:00am 23.8 21.1 20.5 82 2.2 SSE 35 48 19 26 1005.4 1004.8 0.8
28/08:30am 24.1 19.7 20.6 81 2.3 SSE 44 52 24 28 1004.9 1004.3 0.8
28/08:00am 24.0 19.3 20.7 82 2.2 SSE 46 56 25 30 1004.6 1004.0 0.8
28/07:30am 24.0 18.8 20.5 81 2.3 SSE 48 57 26 31 1004.3 1003.7 0.8
28/07:00am 23.6 19.1 20.3 82 2.2 SSE 44 54 24 29 1004.3 1003.7 0.8
28/06:30am 23.6 19.1 20.3 82 2.1 SSE 44 54 24 29 1004.0 1003.4 0.8
28/06:00am 24.1 19.6 19.8 77 2.8 SE 43 50 23 27 1004.1 1003.5 0.8
28/05:30am 23.8 18.9 19.5 77 2.8 SE 44 50 24 27 1003.7 1003.1 0.8
28/05:00am 23.2 18.2 20.0 82 2.1 SSE 46 54 25 29 1003.5 1002.9 0.8
28/04:30am 23.1 18.9 20.6 86 1.6 SSE 43 52 23 28 1003.7 1003.1 0.8
28/04:00am 23.9 20.9 19.8 78 2.7 SSE 35 41 19 22 1004.1 1003.5 0.0
28/03:30am 24.0 20.7 20.1 79 2.5 SE 37 43 20 23 1003.8 1003.2 0.0
28/03:00am 23.7 20.6 20.4 82 2.2 SE 37 43 20 23 1003.8 1003.2 0.0
28/02:30am 24.8 20.9 19.6 73 3.4 SE 39 44 21 24 1003.8 1003.2 0.0
28/02:00am 24.9 21.3 19.3 71 3.6 SE 37 44 20 24 1004.5 1003.9 0.0
28/01:30am 24.7 21.2 19.5 73 3.4 SE 37 43 20 23 1004.7 1004.1 0.0
28/01:00am 24.8 22.1 19.6 73 3.4 SE 33 37 18 20 1005.6 1005.0 0.0
28/12:30am 25.0 22.2 19.4 71 3.6 SE 33 39 18 21 1005.7 1005.1 0.0
28/12:00am 25.0 21.5 19.6 72 3.5 SE 37 41 20 22 1005.7 1005.1 0.0
 
Date/Time
EST
Temp
°C
App
Temp
°C
Dew
Point
Rel
Hum
%
Delta-T
°C
Wind Press
QNH
hPa
Press
MSL
hPa
Rain
since 9 am
mm
Dir
 
Spd
km/h
Gust
km/h
Spd
kts
Gust
kts
27/11:30pm 25.1 21.6 19.7 72 3.5 ESE 37 44 20 24 1005.6 1005.0 0.0
27/11:00pm 25.2 22.1 19.6 71 3.6 ESE 35 41 19 22 1006.0 1005.4 0.0
27/10:30pm 25.3 21.9 19.9 72 3.5 ESE 37 44 20 24 1005.9 1005.3 0.0
27/10:00pm 25.4 22.9 20.2 73 3.4 ESE 33 39 18 21 1006.1 1005.5 0.0
27/09:30pm 25.4 21.9 19.5 70 3.8 ESE 37 43 20 23 1005.7 1005.1 0.0
27/09:00pm 25.5 22.7 20.3 73 3.4 ESE 35 43 19 23 1006.1 1005.5 0.0
27/08:30pm 25.6 22.4 20.2 72 3.5 ESE 37 43 20 23 1005.9 1005.3 0.0
27/08:00pm 25.7 23.4 20.5 73 3.4 ESE 33 41 18 22 1006.0 1005.4 0.0
27/07:30pm 25.7 22.2 20.3 72 3.5 ESE 39 44 21 24 1005.5 1004.9 0.0

Other Formats:

Comma delimited format used in spreadsheet applications
http://www.bom.gov.au/fwo/IDQ60801/IDQ60801.94584.axf

JavaScript Object Notation format (JSON) in row-major order
http://www.bom.gov.au/fwo/IDQ60801/IDQ60801.94584.json